sensor_id;sensor_type;location;lat;lon;timestamp;temperature;humidity
19017;DHT22;9641;51.494;6.670;2024-03-02T00:00:41;8.40;1.00
19017;DHT22;9641;51.494;6.670;2024-03-02T00:03:11;8.40;1.00
19017;DHT22;9641;51.494;6.670;2024-03-02T00:05:39;8.30;1.00
19017;DHT22;9641;51.494;6.670;2024-03-02T00:08:07;8.30;1.00
19017;DHT22;9641;51.494;6.670;2024-03-02T00:10:37;8.20;1.00
19017;DHT22;9641;51.494;6.670;2024-03-02T00:13:05;8.20;1.00
19017;DHT22;9641;51.494;6.670;2024-03-02T00:15:42;8.20;1.00
19017;DHT22;9641;51.494;6.670;2024-03-02T00:18:11;8.30;1.00
19017;DHT22;9641;51.494;6.670;2024-03-02T00:20:39;8.40;1.00
19017;DHT22;9641;51.494;6.670;2024-03-02T00:23:07;8.40;1.00
19017;DHT22;9641;51.494;6.670;2024-03-02T00:25:37;8.50;1.00
19017;DHT22;9641;51.494;6.670;2024-03-02T00:28:05;8.60;1.00
19017;DHT22;9641;51.494;6.670;2024-03-02T00:30:56;8.70;1.00
19017;DHT22;9641;51.494;6.670;2024-03-02T00:33:25;8.70;1.00
19017;DHT22;9641;51.494;6.670;2024-03-02T00:35:53;8.80;1.00
19017;DHT22;9641;51.494;6.670;2024-03-02T00:38:20;8.90;99.90
19017;DHT22;9641;51.494;6.670;2024-03-02T00:40:48;8.90;99.90
19017;DHT22;9641;51.494;6.670;2024-03-02T00:43:47;8.90;99.90
19017;DHT22;9641;51.494;6.670;2024-03-02T00:46:19;8.90;1.00
19017;DHT22;9641;51.494;6.670;2024-03-02T00:48:57;8.90;99.90
19017;DHT22;9641;51.494;6.670;2024-03-02T00:51:25;9.00;99.90
19017;DHT22;9641;51.494;6.670;2024-03-02T00:53:54;9.00;99.90
19017;DHT22;9641;51.494;6.670;2024-03-02T00:56:22;9.00;99.90
19017;DHT22;9641;51.494;6.670;2024-03-02T00:58:49;9.00;99.90
19017;DHT22;9641;51.494;6.670;2024-03-02T01:01:17;9.00;99.90
19017;DHT22;9641;51.494;6.670;2024-03-02T01:03:46;9.00;99.90
19017;DHT22;9641;51.494;6.670;2024-03-02T01:06:15;9.00;1.00
19017;DHT22;9641;51.494;6.670;2024-03-02T01:08:43;9.10;1.00
19017;DHT22;9641;51.494;6.670;2024-03-02T01:11:10;9.10;1.00
19017;DHT22;9641;51.494;6.670;2024-03-02T01:13:37;9.10;1.00
19017;DHT22;9641;51.494;6.670;2024-03-02T01:16:04;9.10;1.00
19017;DHT22;9641;51.494;6.670;2024-03-02T01:18:32;9.10;1.00
19017;DHT22;9641;51.494;6.670;2024-03-02T01:21:01;9.10;1.00
19017;DHT22;9641;51.494;6.670;2024-03-02T01:23:30;9.10;1.00
19017;DHT22;9641;51.494;6.670;2024-03-02T01:25:58;9.10;1.00
19017;DHT22;9641;51.494;6.670;2024-03-02T01:28:25;9.10;89.20
19017;DHT22;9641;51.494;6.670;2024-03-02T01:30:52;9.10;1.00
19017;DHT22;9641;51.494;6.670;2024-03-02T01:33:20;9.10;1.00
19017;DHT22;9641;51.494;6.670;2024-03-02T01:35:47;9.10;1.00
19017;DHT22;9641;51.494;6.670;2024-03-02T01:38:15;9.00;1.00
19017;DHT22;9641;51.494;6.670;2024-03-02T01:40:42;9.00;1.00
19017;DHT22;9641;51.494;6.670;2024-03-02T01:43:10;8.90;1.00
19017;DHT22;9641;51.494;6.670;2024-03-02T01:45:37;8.90;99.90
19017;DHT22;9641;51.494;6.670;2024-03-02T01:48:06;8.80;99.90
19017;DHT22;9641;51.494;6.670;2024-03-02T01:50:34;8.80;99.90
19017;DHT22;9641;51.494;6.670;2024-03-02T01:53:01;8.90;99.90
19017;DHT22;9641;51.494;6.670;2024-03-02T01:55:30;9.00;1.00
19017;DHT22;9641;51.494;6.670;2024-03-02T01:57:58;9.10;1.00
19017;DHT22;9641;51.494;6.670;2024-03-02T02:00:25;9.20;79.30
19017;DHT22;9641;51.494;6.670;2024-03-02T02:02:53;9.20;1.00
19017;DHT22;9641;51.494;6.670;2024-03-02T02:05:20;9.30;99.90
19017;DHT22;9641;51.494;6.670;2024-03-02T02:07:47;9.30;99.90
19017;DHT22;9641;51.494;6.670;2024-03-02T02:10:14;9.40;1.00
19017;DHT22;9641;51.494;6.670;2024-03-02T02:12:42;9.40;1.00
19017;DHT22;9641;51.494;6.670;2024-03-02T02:15:26;9.40;99.90
19017;DHT22;9641;51.494;6.670;2024-03-02T02:17:53;9.50;1.00
19017;DHT22;9641;51.494;6.670;2024-03-02T02:20:20;9.50;1.00
19017;DHT22;9641;51.494;6.670;2024-03-02T02:22:56;9.50;1.00
19017;DHT22;9641;51.494;6.670;2024-03-02T02:25:23;9.50;1.00
19017;DHT22;9641;51.494;6.670;2024-03-02T02:27:49;9.50;99.90
19017;DHT22;9641;51.494;6.670;2024-03-02T02:30:19;9.50;99.90
19017;DHT22;9641;51.494;6.670;2024-03-02T02:32:46;9.50;99.90
19017;DHT22;9641;51.494;6.670;2024-03-02T02:35:13;9.50;99.90
19017;DHT22;9641;51.494;6.670;2024-03-02T02:37:40;9.60;1.00
19017;DHT22;9641;51.494;6.670;2024-03-02T02:40:10;9.60;1.00
19017;DHT22;9641;51.494;6.670;2024-03-02T02:42:37;9.60;1.00
19017;DHT22;9641;51.494;6.670;2024-03-02T02:45:04;9.60;1.00
19017;DHT22;9641;51.494;6.670;2024-03-02T02:47:31;9.60;99.90
19017;DHT22;9641;51.494;6.670;2024-03-02T02:50:01;9.60;99.90
19017;DHT22;9641;51.494;6.670;2024-03-02T02:52:31;9.50;1.00
19017;DHT22;9641;51.494;6.670;2024-03-02T02:55:02;9.50;1.00
19017;DHT22;9641;51.494;6.670;2024-03-02T02:57:31;9.50;1.00
19017;DHT22;9641;51.494;6.670;2024-03-02T03:00:02;9.40;3.50
19017;DHT22;9641;51.494;6.670;2024-03-02T03:02:36;9.40;99.90
19017;DHT22;9641;51.494;6.670;2024-03-02T03:05:03;9.40;99.90
19017;DHT22;9641;51.494;6.670;2024-03-02T03:07:31;9.40;1.00
19017;DHT22;9641;51.494;6.670;2024-03-02T03:09:58;9.40;1.00
19017;DHT22;9641;51.494;6.670;2024-03-02T03:12:25;9.40;99.90
19017;DHT22;9641;51.494;6.670;2024-03-02T03:14:53;9.30;1.00
19017;DHT22;9641;51.494;6.670;2024-03-02T03:17:21;9.30;1.00
19017;DHT22;9641;51.494;6.670;2024-03-02T03:19:48;9.20;99.90
19017;DHT22;9641;51.494;6.670;2024-03-02T03:22:15;9.20;99.90
19017;DHT22;9641;51.494;6.670;2024-03-02T03:24:42;9.10;1.00
19017;DHT22;9641;51.494;6.670;2024-03-02T03:27:10;9.00;1.00
19017;DHT22;9641;51.494;6.670;2024-03-02T03:29:37;9.10;1.00
19017;DHT22;9641;51.494;6.670;2024-03-02T03:32:06;9.10;1.00
19017;DHT22;9641;51.494;6.670;2024-03-02T03:34:36;9.00;1.00
19017;DHT22;9641;51.494;6.670;2024-03-02T03:37:03;9.00;1.00
19017;DHT22;9641;51.494;6.670;2024-03-02T03:39:30;9.00;15.30
19017;DHT22;9641;51.494;6.670;2024-03-02T03:41:57;9.00;63.90
19017;DHT22;9641;51.494;6.670;2024-03-02T03:44:24;9.00;1.00
19017;DHT22;9641;51.494;6.670;2024-03-02T03:46:51;9.00;1.00
19017;DHT22;9641;51.494;6.670;2024-03-02T03:49:19;9.00;73.50
19017;DHT22;9641;51.494;6.670;2024-03-02T03:51:46;9.00;99.90
19017;DHT22;9641;51.494;6.670;2024-03-02T03:54:13;8.90;99.90
19017;DHT22;9641;51.494;6.670;2024-03-02T03:56:40;8.90;99.90
19017;DHT22;9641;51.494;6.670;2024-03-02T03:59:09;8.90;1.00
19017;DHT22;9641;51.494;6.670;2024-03-02T04:01:36;8.80;1.00
19017;DHT22;9641;51.494;6.670;2024-03-02T04:04:03;8.70;1.00
19017;DHT22;9641;51.494;6.670;2024-03-02T04:06:32;8.60;1.00
19017;DHT22;9641;51.494;6.670;2024-03-02T04:08:58;8.60;1.00
19017;DHT22;9641;51.494;6.670;2024-03-02T04:11:25;8.60;1.00
19017;DHT22;9641;51.494;6.670;2024-03-02T04:13:52;8.60;1.00
19017;DHT22;9641;51.494;6.670;2024-03-02T04:16:19;8.60;1.00
19017;DHT22;9641;51.494;6.670;2024-03-02T04:18:46;8.50;37.00
19017;DHT22;9641;51.494;6.670;2024-03-02T04:21:13;8.30;99.90
19017;DHT22;9641;51.494;6.670;2024-03-02T04:23:41;8.10;99.90
19017;DHT22;9641;51.494;6.670;2024-03-02T04:26:08;7.80;99.90
19017;DHT22;9641;51.494;6.670;2024-03-02T04:28:35;7.60;99.90
19017;DHT22;9641;51.494;6.670;2024-03-02T04:31:02;7.60;99.90
19017;DHT22;9641;51.494;6.670;2024-03-02T04:33:29;7.60;99.90
19017;DHT22;9641;51.494;6.670;2024-03-02T04:35:56;7.70;99.90
19017;DHT22;9641;51.494;6.670;2024-03-02T04:38:23;7.70;99.90
19017;DHT22;9641;51.494;6.670;2024-03-02T04:40:52;7.70;99.90
19017;DHT22;9641;51.494;6.670;2024-03-02T04:43:19;7.70;99.90
19017;DHT22;9641;51.494;6.670;2024-03-02T04:45:46;7.60;99.90
19017;DHT22;9641;51.494;6.670;2024-03-02T04:48:12;7.50;99.90
19017;DHT22;9641;51.494;6.670;2024-03-02T04:50:40;7.50;99.90
19017;DHT22;9641;51.494;6.670;2024-03-02T04:53:07;7.40;99.90
19017;DHT22;9641;51.494;6.670;2024-03-02T04:55:33;7.50;99.90
19017;DHT22;9641;51.494;6.670;2024-03-02T04:58:31;7.40;99.90
19017;DHT22;9641;51.494;6.670;2024-03-02T05:00:58;7.30;99.90
19017;DHT22;9641;51.494;6.670;2024-03-02T05:03:25;7.10;99.90
19017;DHT22;9641;51.494;6.670;2024-03-02T05:05:52;7.00;99.90
19017;DHT22;9641;51.494;6.670;2024-03-02T05:08:19;6.90;99.90
19017;DHT22;9641;51.494;6.670;2024-03-02T05:10:45;7.00;99.90
19017;DHT22;9641;51.494;6.670;2024-03-02T05:13:12;7.00;99.90
19017;DHT22;9641;51.494;6.670;2024-03-02T05:15:40;6.90;99.90
19017;DHT22;9641;51.494;6.670;2024-03-02T05:18:07;6.80;99.90
19017;DHT22;9641;51.494;6.670;2024-03-02T05:20:33;6.60;99.90
19017;DHT22;9641;51.494;6.670;2024-03-02T05:23:00;6.30;99.90
19017;DHT22;9641;51.494;6.670;2024-03-02T05:25:27;6.30;99.90
19017;DHT22;9641;51.494;6.670;2024-03-02T05:27:54;6.20;99.90
19017;DHT22;9641;51.494;6.670;2024-03-02T05:30:21;6.20;99.90
19017;DHT22;9641;51.494;6.670;2024-03-02T05:32:49;6.20;99.90
19017;DHT22;9641;51.494;6.670;2024-03-02T05:35:16;6.30;99.90
19017;DHT22;9641;51.494;6.670;2024-03-02T05:37:43;6.20;99.90
19017;DHT22;9641;51.494;6.670;2024-03-02T05:40:10;6.20;99.90
19017;DHT22;9641;51.494;6.670;2024-03-02T05:42:38;6.10;99.90
19017;DHT22;9641;51.494;6.670;2024-03-02T05:45:07;6.10;99.90
19017;DHT22;9641;51.494;6.670;2024-03-02T05:47:34;6.10;99.90
19017;DHT22;9641;51.494;6.670;2024-03-02T05:50:03;6.10;99.90
19017;DHT22;9641;51.494;6.670;2024-03-02T05:52:30;6.20;99.90
19017;DHT22;9641;51.494;6.670;2024-03-02T05:54:57;6.20;99.90
19017;DHT22;9641;51.494;6.670;2024-03-02T05:57:24;6.20;99.90
19017;DHT22;9641;51.494;6.670;2024-03-02T06:00:11;6.20;99.90
19017;DHT22;9641;51.494;6.670;2024-03-02T06:02:39;6.20;99.90
19017;DHT22;9641;51.494;6.670;2024-03-02T06:05:08;6.10;99.90
19017;DHT22;9641;51.494;6.670;2024-03-02T06:07:35;6.00;99.90
19017;DHT22;9641;51.494;6.670;2024-03-02T06:10:02;6.00;99.90
19017;DHT22;9641;51.494;6.670;2024-03-02T06:12:31;6.00;99.90
19017;DHT22;9641;51.494;6.670;2024-03-02T06:14:58;6.20;99.90
19017;DHT22;9641;51.494;6.670;2024-03-02T06:17:25;6.20;99.90
19017;DHT22;9641;51.494;6.670;2024-03-02T06:19:52;6.10;99.90
19017;DHT22;9641;51.494;6.670;2024-03-02T06:22:20;6.10;99.90
19017;DHT22;9641;51.494;6.670;2024-03-02T06:24:48;6.20;99.90
19017;DHT22;9641;51.494;6.670;2024-03-02T06:27:15;6.20;99.90
19017;DHT22;9641;51.494;6.670;2024-03-02T06:29:42;6.20;99.90
19017;DHT22;9641;51.494;6.670;2024-03-02T06:32:09;6.30;99.90
19017;DHT22;9641;51.494;6.670;2024-03-02T06:34:36;6.50;99.90
19017;DHT22;9641;51.494;6.670;2024-03-02T06:37:03;6.80;99.90
19017;DHT22;9641;51.494;6.670;2024-03-02T06:39:31;7.00;99.90
19017;DHT22;9641;51.494;6.670;2024-03-02T06:41:59;7.20;99.90
19017;DHT22;9641;51.494;6.670;2024-03-02T06:44:27;7.40;99.90
19017;DHT22;9641;51.494;6.670;2024-03-02T06:46:54;7.50;99.90
19017;DHT22;9641;51.494;6.670;2024-03-02T06:49:21;7.60;99.90
19017;DHT22;9641;51.494;6.670;2024-03-02T06:51:48;7.70;99.90
19017;DHT22;9641;51.494;6.670;2024-03-02T06:54:15;7.80;99.90
19017;DHT22;9641;51.494;6.670;2024-03-02T06:56:43;7.90;99.90
19017;DHT22;9641;51.494;6.670;2024-03-02T06:59:10;8.00;99.90
19017;DHT22;9641;51.494;6.670;2024-03-02T07:01:37;8.00;99.90
19017;DHT22;9641;51.494;6.670;2024-03-02T07:04:07;8.00;99.90
19017;DHT22;9641;51.494;6.670;2024-03-02T07:06:34;8.10;99.90
19017;DHT22;9641;51.494;6.670;2024-03-02T07:09:01;8.20;99.90
19017;DHT22;9641;51.494;6.670;2024-03-02T07:11:28;8.30;99.90
19017;DHT22;9641;51.494;6.670;2024-03-02T07:13:56;8.40;99.90
19017;DHT22;9641;51.494;6.670;2024-03-02T07:16:23;8.50;99.90
19017;DHT22;9641;51.494;6.670;2024-03-02T07:18:55;8.50;99.90
19017;DHT22;9641;51.494;6.670;2024-03-02T07:21:22;8.60;99.90
19017;DHT22;9641;51.494;6.670;2024-03-02T07:23:49;8.70;99.90
19017;DHT22;9641;51.494;6.670;2024-03-02T07:26:16;8.70;99.90
19017;DHT22;9641;51.494;6.670;2024-03-02T07:28:45;8.80;99.90
19017;DHT22;9641;51.494;6.670;2024-03-02T07:31:13;8.90;99.90
19017;DHT22;9641;51.494;6.670;2024-03-02T07:33:41;8.90;99.90
19017;DHT22;9641;51.494;6.670;2024-03-02T07:36:08;8.90;99.90
19017;DHT22;9641;51.494;6.670;2024-03-02T07:38:35;9.00;99.90
19017;DHT22;9641;51.494;6.670;2024-03-02T07:41:02;9.00;99.90
19017;DHT22;9641;51.494;6.670;2024-03-02T07:43:30;9.00;99.90
19017;DHT22;9641;51.494;6.670;2024-03-02T07:45:58;9.10;99.90
19017;DHT22;9641;51.494;6.670;2024-03-02T07:48:27;9.10;99.90
19017;DHT22;9641;51.494;6.670;2024-03-02T07:50:54;9.20;99.90
19017;DHT22;9641;51.494;6.670;2024-03-02T07:53:21;9.20;99.90
19017;DHT22;9641;51.494;6.670;2024-03-02T07:55:48;9.20;99.90
19017;DHT22;9641;51.494;6.670;2024-03-02T07:58:15;9.20;99.90
19017;DHT22;9641;51.494;6.670;2024-03-02T08:00:43;9.10;99.90
19017;DHT22;9641;51.494;6.670;2024-03-02T08:03:11;9.10;99.90
19017;DHT22;9641;51.494;6.670;2024-03-02T08:05:39;9.00;99.90
19017;DHT22;9641;51.494;6.670;2024-03-02T08:08:06;8.90;99.90
19017;DHT22;9641;51.494;6.670;2024-03-02T08:10:33;8.90;99.90
19017;DHT22;9641;51.494;6.670;2024-03-02T08:13:01;8.90;99.90
19017;DHT22;9641;51.494;6.670;2024-03-02T08:15:28;9.00;99.90
19017;DHT22;9641;51.494;6.670;2024-03-02T08:17:55;9.00;99.90
19017;DHT22;9641;51.494;6.670;2024-03-02T08:20:23;9.10;99.90
19017;DHT22;9641;51.494;6.670;2024-03-02T08:22:51;9.10;99.90
19017;DHT22;9641;51.494;6.670;2024-03-02T08:25:20;9.10;99.90
19017;DHT22;9641;51.494;6.670;2024-03-02T08:27:47;9.00;99.90
19017;DHT22;9641;51.494;6.670;2024-03-02T08:30:14;9.00;99.90
19017;DHT22;9641;51.494;6.670;2024-03-02T08:32:42;9.00;99.90
19017;DHT22;9641;51.494;6.670;2024-03-02T08:35:09;9.00;99.90
19017;DHT22;9641;51.494;6.670;2024-03-02T08:37:38;9.00;99.90
19017;DHT22;9641;51.494;6.670;2024-03-02T08:40:08;9.10;99.90
19017;DHT22;9641;51.494;6.670;2024-03-02T08:42:36;9.10;99.90
19017;DHT22;9641;51.494;6.670;2024-03-02T08:45:07;9.20;99.90
19017;DHT22;9641;51.494;6.670;2024-03-02T08:47:34;9.20;99.90
19017;DHT22;9641;51.494;6.670;2024-03-02T08:50:01;9.20;99.90
19017;DHT22;9641;51.494;6.670;2024-03-02T08:52:29;9.30;99.90
19017;DHT22;9641;51.494;6.670;2024-03-02T08:54:56;9.40;99.90
19017;DHT22;9641;51.494;6.670;2024-03-02T08:57:24;9.50;99.90
19017;DHT22;9641;51.494;6.670;2024-03-02T08:59:51;9.60;99.90
19017;DHT22;9641;51.494;6.670;2024-03-02T09:02:18;9.60;99.90
19017;DHT22;9641;51.494;6.670;2024-03-02T09:04:45;9.70;99.90
19017;DHT22;9641;51.494;6.670;2024-03-02T09:07:12;9.80;55.20
19017;DHT22;9641;51.494;6.670;2024-03-02T09:09:39;9.90;67.80
19017;DHT22;9641;51.494;6.670;2024-03-02T09:12:07;10.00;23.00
19017;DHT22;9641;51.494;6.670;2024-03-02T09:14:36;10.00;19.00
19017;DHT22;9641;51.494;6.670;2024-03-02T09:17:05;10.20;40.50
19017;DHT22;9641;51.494;6.670;2024-03-02T09:19:32;10.30;1.00
19017;DHT22;9641;51.494;6.670;2024-03-02T09:21:59;10.40;1.00
19017;DHT22;9641;51.494;6.670;2024-03-02T09:24:28;10.50;1.00
19017;DHT22;9641;51.494;6.670;2024-03-02T09:26:56;10.50;1.00
19017;DHT22;9641;51.494;6.670;2024-03-02T09:29:22;10.60;1.00
19017;DHT22;9641;51.494;6.670;2024-03-02T09:31:51;10.70;1.00
19017;DHT22;9641;51.494;6.670;2024-03-02T09:34:18;10.80;1.00
19017;DHT22;9641;51.494;6.670;2024-03-02T09:36:45;10.90;1.00
19017;DHT22;9641;51.494;6.670;2024-03-02T09:39:12;11.00;1.00
19017;DHT22;9641;51.494;6.670;2024-03-02T09:41:39;11.10;1.00
19017;DHT22;9641;51.494;6.670;2024-03-02T09:44:07;11.20;1.00
19017;DHT22;9641;51.494;6.670;2024-03-02T09:46:34;11.10;1.00
19017;DHT22;9641;51.494;6.670;2024-03-02T09:49:03;11.10;99.90
19017;DHT22;9641;51.494;6.670;2024-03-02T09:51:31;11.10;99.90
19017;DHT22;9641;51.494;6.670;2024-03-02T09:53:57;11.10;1.00
19017;DHT22;9641;51.494;6.670;2024-03-02T09:56:27;11.20;93.00
19017;DHT22;9641;51.494;6.670;2024-03-02T09:58:54;11.40;99.90
19017;DHT22;9641;51.494;6.670;2024-03-02T10:01:21;11.60;1.00
19017;DHT22;9641;51.494;6.670;2024-03-02T10:03:50;11.70;1.00
19017;DHT22;9641;51.494;6.670;2024-03-02T10:06:23;11.70;1.00
19017;DHT22;9641;51.494;6.670;2024-03-02T10:08:51;11.80;1.00
19017;DHT22;9641;51.494;6.670;2024-03-02T10:11:29;11.80;1.00
19017;DHT22;9641;51.494;6.670;2024-03-02T10:14:07;11.80;99.90
19017;DHT22;9641;51.494;6.670;2024-03-02T10:16:35;11.90;99.90
19017;DHT22;9641;51.494;6.670;2024-03-02T10:19:21;12.10;1.00
19017;DHT22;9641;51.494;6.670;2024-03-02T10:21:51;12.30;1.00
19017;DHT22;9641;51.494;6.670;2024-03-02T10:24:18;12.40;1.00
19017;DHT22;9641;51.494;6.670;2024-03-02T10:26:45;12.50;1.00
19017;DHT22;9641;51.494;6.670;2024-03-02T10:29:12;12.50;1.00
19017;DHT22;9641;51.494;6.670;2024-03-02T10:31:40;12.60;99.90
19017;DHT22;9641;51.494;6.670;2024-03-02T10:34:07;12.70;63.90
19017;DHT22;9641;51.494;6.670;2024-03-02T10:36:34;12.80;1.00
19017;DHT22;9641;51.494;6.670;2024-03-02T10:39:04;12.80;1.00
19017;DHT22;9641;51.494;6.670;2024-03-02T10:41:33;12.70;99.90
19017;DHT22;9641;51.494;6.670;2024-03-02T10:44:03;12.60;1.00
19017;DHT22;9641;51.494;6.670;2024-03-02T10:46:31;12.30;25.20
19017;DHT22;9641;51.494;6.670;2024-03-02T10:49:03;12.40;99.90
19017;DHT22;9641;51.494;6.670;2024-03-02T10:51:31;12.80;1.00
19017;DHT22;9641;51.494;6.670;2024-03-02T10:53:59;13.20;17.00
19017;DHT22;9641;51.494;6.670;2024-03-02T10:56:31;14.00;1.00
19017;DHT22;9641;51.494;6.670;2024-03-02T10:59:03;14.50;99.90
19017;DHT22;9641;51.494;6.670;2024-03-02T11:01:32;15.40;99.90
19017;DHT22;9641;51.494;6.670;2024-03-02T11:03:59;17.00;1.00
19017;DHT22;9641;51.494;6.670;2024-03-02T11:06:28;18.20;1.00
19017;DHT22;9641;51.494;6.670;2024-03-02T11:09:00;18.70;1.00
19017;DHT22;9641;51.494;6.670;2024-03-02T11:11:40;18.60;1.00
19017;DHT22;9641;51.494;6.670;2024-03-02T11:14:16;18.80;1.00
19017;DHT22;9641;51.494;6.670;2024-03-02T11:16:44;18.90;1.00
19017;DHT22;9641;51.494;6.670;2024-03-02T11:19:12;19.60;1.00
19017;DHT22;9641;51.494;6.670;2024-03-02T11:21:40;19.90;99.90
19017;DHT22;9641;51.494;6.670;2024-03-02T11:24:28;19.70;99.90
19017;DHT22;9641;51.494;6.670;2024-03-02T11:27:00;18.70;99.90
19017;DHT22;9641;51.494;6.670;2024-03-02T11:29:43;18.20;99.90
19017;DHT22;9641;51.494;6.670;2024-03-02T11:32:16;18.10;99.90
19017;DHT22;9641;51.494;6.670;2024-03-02T11:34:45;19.10;99.90
19017;DHT22;9641;51.494;6.670;2024-03-02T11:37:14;19.50;99.90
19017;DHT22;9641;51.494;6.670;2024-03-02T11:39:42;19.90;99.90
19017;DHT22;9641;51.494;6.670;2024-03-02T11:42:11;19.80;99.90
19017;DHT22;9641;51.494;6.670;2024-03-02T11:44:42;19.50;99.90
19017;DHT22;9641;51.494;6.670;2024-03-02T11:47:11;19.20;99.90
19017;DHT22;9641;51.494;6.670;2024-03-02T11:49:42;19.60;99.90
19017;DHT22;9641;51.494;6.670;2024-03-02T11:52:12;20.20;99.90
19017;DHT22;9641;51.494;6.670;2024-03-02T11:54:40;21.10;99.90
19017;DHT22;9641;51.494;6.670;2024-03-02T11:57:14;21.00;99.90
19017;DHT22;9641;51.494;6.670;2024-03-02T11:59:41;20.60;99.90
19017;DHT22;9641;51.494;6.670;2024-03-02T12:02:14;20.90;99.90
19017;DHT22;9641;51.494;6.670;2024-03-02T12:04:42;22.00;99.90
19017;DHT22;9641;51.494;6.670;2024-03-02T12:07:10;22.90;99.90
19017;DHT22;9641;51.494;6.670;2024-03-02T12:09:37;22.10;99.90
19017;DHT22;9641;51.494;6.670;2024-03-02T12:12:05;22.60;99.90
19017;DHT22;9641;51.494;6.670;2024-03-02T12:14:35;23.50;99.90
19017;DHT22;9641;51.494;6.670;2024-03-02T12:17:02;24.00;99.90
19017;DHT22;9641;51.494;6.670;2024-03-02T12:19:32;23.60;99.90
19017;DHT22;9641;51.494;6.670;2024-03-02T12:22:00;22.90;99.90
19017;DHT22;9641;51.494;6.670;2024-03-02T12:24:28;21.80;99.90
19017;DHT22;9641;51.494;6.670;2024-03-02T12:26:55;20.90;99.90
19017;DHT22;9641;51.494;6.670;2024-03-02T12:29:23;20.00;99.90
19017;DHT22;9641;51.494;6.670;2024-03-02T12:31:53;18.60;99.90
19017;DHT22;9641;51.494;6.670;2024-03-02T12:34:21;17.80;99.90
19017;DHT22;9641;51.494;6.670;2024-03-02T12:36:49;17.40;99.90
19017;DHT22;9641;51.494;6.670;2024-03-02T12:39:19;17.30;99.90
19017;DHT22;9641;51.494;6.670;2024-03-02T12:41:47;17.40;99.90
19017;DHT22;9641;51.494;6.670;2024-03-02T12:44:16;17.60;99.90
19017;DHT22;9641;51.494;6.670;2024-03-02T12:46:44;17.40;99.90
19017;DHT22;9641;51.494;6.670;2024-03-02T12:49:16;17.40;99.90
19017;DHT22;9641;51.494;6.670;2024-03-02T12:51:43;17.50;99.90
19017;DHT22;9641;51.494;6.670;2024-03-02T12:54:13;17.90;99.90
19017;DHT22;9641;51.494;6.670;2024-03-02T12:56:41;17.80;99.90
19017;DHT22;9641;51.494;6.670;2024-03-02T12:59:17;17.70;99.90
19017;DHT22;9641;51.494;6.670;2024-03-02T13:01:50;17.80;99.90
19017;DHT22;9641;51.494;6.670;2024-03-02T13:04:21;17.50;99.90
19017;DHT22;9641;51.494;6.670;2024-03-02T13:06:48;17.20;99.90
19017;DHT22;9641;51.494;6.670;2024-03-02T13:09:17;17.10;99.90
19017;DHT22;9641;51.494;6.670;2024-03-02T13:11:45;17.30;99.90
19017;DHT22;9641;51.494;6.670;2024-03-02T13:14:12;17.80;99.90
19017;DHT22;9641;51.494;6.670;2024-03-02T13:16:39;18.40;99.90
19017;DHT22;9641;51.494;6.670;2024-03-02T13:19:09;19.20;99.90
19017;DHT22;9641;51.494;6.670;2024-03-02T13:21:37;19.40;99.90
19017;DHT22;9641;51.494;6.670;2024-03-02T13:24:06;18.80;99.90
19017;DHT22;9641;51.494;6.670;2024-03-02T13:26:33;18.00;99.90
19017;DHT22;9641;51.494;6.670;2024-03-02T13:29:01;18.00;99.90
19017;DHT22;9641;51.494;6.670;2024-03-02T13:31:29;17.60;99.90
19017;DHT22;9641;51.494;6.670;2024-03-02T13:33:56;17.70;99.90
19017;DHT22;9641;51.494;6.670;2024-03-02T13:36:23;18.00;99.90
19017;DHT22;9641;51.494;6.670;2024-03-02T13:38:53;18.20;99.90
19017;DHT22;9641;51.494;6.670;2024-03-02T13:41:21;18.20;99.90
19017;DHT22;9641;51.494;6.670;2024-03-02T13:43:48;17.90;99.90
19017;DHT22;9641;51.494;6.670;2024-03-02T13:46:16;17.50;99.90
19017;DHT22;9641;51.494;6.670;2024-03-02T13:48:43;17.30;99.90
19017;DHT22;9641;51.494;6.670;2024-03-02T13:51:10;17.40;99.90
19017;DHT22;9641;51.494;6.670;2024-03-02T13:53:37;17.40;99.90
19017;DHT22;9641;51.494;6.670;2024-03-02T13:56:06;17.00;99.90
19017;DHT22;9641;51.494;6.670;2024-03-02T13:58:33;16.80;99.90
19017;DHT22;9641;51.494;6.670;2024-03-02T14:01:00;16.60;99.90
19017;DHT22;9641;51.494;6.670;2024-03-02T14:03:30;16.80;99.90
19017;DHT22;9641;51.494;6.670;2024-03-02T14:05:57;16.80;99.90
19017;DHT22;9641;51.494;6.670;2024-03-02T14:08:24;16.90;99.90
19017;DHT22;9641;51.494;6.670;2024-03-02T14:10:51;17.00;99.90
19017;DHT22;9641;51.494;6.670;2024-03-02T14:13:19;16.70;99.90
19017;DHT22;9641;51.494;6.670;2024-03-02T14:15:45;16.70;99.90
19017;DHT22;9641;51.494;6.670;2024-03-02T14:18:12;17.00;99.90
19017;DHT22;9641;51.494;6.670;2024-03-02T14:20:39;17.40;99.90
19017;DHT22;9641;51.494;6.670;2024-03-02T14:23:08;17.20;99.90
19017;DHT22;9641;51.494;6.670;2024-03-02T14:25:36;17.20;99.90
19017;DHT22;9641;51.494;6.670;2024-03-02T14:28:04;17.30;99.90
19017;DHT22;9641;51.494;6.670;2024-03-02T14:30:32;17.70;99.90
19017;DHT22;9641;51.494;6.670;2024-03-02T14:32:59;17.90;99.90
19017;DHT22;9641;51.494;6.670;2024-03-02T14:35:26;18.30;99.90
19017;DHT22;9641;51.494;6.670;2024-03-02T14:37:54;18.10;99.90
19017;DHT22;9641;51.494;6.670;2024-03-02T14:40:23;18.30;99.90
19017;DHT22;9641;51.494;6.670;2024-03-02T14:42:52;18.50;99.90
19017;DHT22;9641;51.494;6.670;2024-03-02T14:45:19;18.20;99.90
19017;DHT22;9641;51.494;6.670;2024-03-02T14:47:47;18.30;99.90
19017;DHT22;9641;51.494;6.670;2024-03-02T14:50:15;19.00;99.90
19017;DHT22;9641;51.494;6.670;2024-03-02T14:52:43;19.70;99.90
19017;DHT22;9641;51.494;6.670;2024-03-02T14:55:11;20.50;99.90
19017;DHT22;9641;51.494;6.670;2024-03-02T14:57:39;21.00;99.90
19017;DHT22;9641;51.494;6.670;2024-03-02T15:00:07;20.50;99.90
19017;DHT22;9641;51.494;6.670;2024-03-02T15:02:36;19.50;99.90
19017;DHT22;9641;51.494;6.670;2024-03-02T15:05:05;18.70;99.90
19017;DHT22;9641;51.494;6.670;2024-03-02T15:07:33;18.30;99.90
19017;DHT22;9641;51.494;6.670;2024-03-02T15:10:00;18.10;99.90
19017;DHT22;9641;51.494;6.670;2024-03-02T15:12:29;17.90;99.90
19017;DHT22;9641;51.494;6.670;2024-03-02T15:14:56;18.00;99.90
19017;DHT22;9641;51.494;6.670;2024-03-02T15:17:24;18.30;99.90
19017;DHT22;9641;51.494;6.670;2024-03-02T15:19:51;18.30;99.90
19017;DHT22;9641;51.494;6.670;2024-03-02T15:22:20;18.30;99.90
19017;DHT22;9641;51.494;6.670;2024-03-02T15:24:47;17.80;99.90
19017;DHT22;9641;51.494;6.670;2024-03-02T15:27:14;17.40;99.90
19017;DHT22;9641;51.494;6.670;2024-03-02T15:29:41;17.20;99.90
19017;DHT22;9641;51.494;6.670;2024-03-02T15:32:08;17.00;99.90
19017;DHT22;9641;51.494;6.670;2024-03-02T15:34:36;16.70;99.90
19017;DHT22;9641;51.494;6.670;2024-03-02T15:37:03;16.50;99.90
19017;DHT22;9641;51.494;6.670;2024-03-02T15:39:32;16.50;99.90
19017;DHT22;9641;51.494;6.670;2024-03-02T15:41:59;16.70;99.90
19017;DHT22;9641;51.494;6.670;2024-03-02T15:44:26;16.80;99.90
19017;DHT22;9641;51.494;6.670;2024-03-02T15:46:53;17.00;99.90
19017;DHT22;9641;51.494;6.670;2024-03-02T15:49:20;17.10;99.90
19017;DHT22;9641;51.494;6.670;2024-03-02T15:51:47;17.20;99.90
19017;DHT22;9641;51.494;6.670;2024-03-02T15:54:14;17.00;99.90
19017;DHT22;9641;51.494;6.670;2024-03-02T15:56:42;17.00;99.90
19017;DHT22;9641;51.494;6.670;2024-03-02T15:59:10;17.00;99.90
19017;DHT22;9641;51.494;6.670;2024-03-02T16:01:36;16.90;99.90
19017;DHT22;9641;51.494;6.670;2024-03-02T16:04:04;16.70;99.90
19017;DHT22;9641;51.494;6.670;2024-03-02T16:06:30;16.50;99.90